sensor_id;sensor_type;location;lat;lon;timestamp;P1;durP1;ratioP1;P2;durP2;ratioP2
5833;SDS011;2943;48.012;10.968;2022-12-10T00:02:13;54.33;;;28.60;;
5833;SDS011;2943;48.012;10.968;2022-12-10T00:04:40;58.60;;;25.43;;
5833;SDS011;2943;48.012;10.968;2022-12-10T00:07:07;51.23;;;24.30;;
5833;SDS011;2943;48.012;10.968;2022-12-10T00:09:34;54.73;;;26.47;;
5833;SDS011;2943;48.012;10.968;2022-12-10T00:12:01;55.63;;;25.30;;
5833;SDS011;2943;48.012;10.968;2022-12-10T00:14:28;58.80;;;28.00;;
5833;SDS011;2943;48.012;10.968;2022-12-10T00:16:56;56.87;;;26.70;;
5833;SDS011;2943;48.012;10.968;2022-12-10T00:19:23;59.60;;;26.67;;
5833;SDS011;2943;48.012;10.968;2022-12-10T00:21:50;59.97;;;27.23;;
5833;SDS011;2943;48.012;10.968;2022-12-10T00:24:17;53.77;;;27.97;;
5833;SDS011;2943;48.012;10.968;2022-12-10T00:26:43;53.80;;;26.37;;
5833;SDS011;2943;48.012;10.968;2022-12-10T00:29:11;58.53;;;27.60;;
5833;SDS011;2943;48.012;10.968;2022-12-10T00:31:38;59.40;;;26.57;;
5833;SDS011;2943;48.012;10.968;2022-12-10T00:34:07;59.10;;;27.47;;
5833;SDS011;2943;48.012;10.968;2022-12-10T00:36:36;60.40;;;28.50;;
5833;SDS011;2943;48.012;10.968;2022-12-10T00:39:05;64.93;;;29.07;;
5833;SDS011;2943;48.012;10.968;2022-12-10T00:41:32;71.80;;;28.67;;
5833;SDS011;2943;48.012;10.968;2022-12-10T00:43:59;62.83;;;28.90;;
5833;SDS011;2943;48.012;10.968;2022-12-10T00:46:26;62.63;;;28.40;;
5833;SDS011;2943;48.012;10.968;2022-12-10T00:48:53;63.20;;;28.77;;
5833;SDS011;2943;48.012;10.968;2022-12-10T00:51:22;67.57;;;30.57;;
5833;SDS011;2943;48.012;10.968;2022-12-10T00:53:51;59.93;;;28.53;;
5833;SDS011;2943;48.012;10.968;2022-12-10T00:56:19;69.70;;;30.17;;
5833;SDS011;2943;48.012;10.968;2022-12-10T00:58:47;69.30;;;30.00;;
5833;SDS011;2943;48.012;10.968;2022-12-10T01:01:15;65.53;;;28.03;;
5833;SDS011;2943;48.012;10.968;2022-12-10T01:03:43;69.77;;;30.77;;
5833;SDS011;2943;48.012;10.968;2022-12-10T01:06:12;68.50;;;30.33;;
5833;SDS011;2943;48.012;10.968;2022-12-10T01:08:42;70.23;;;30.23;;
5833;SDS011;2943;48.012;10.968;2022-12-10T01:11:10;67.63;;;28.90;;
5833;SDS011;2943;48.012;10.968;2022-12-10T01:13:38;70.20;;;27.37;;
5833;SDS011;2943;48.012;10.968;2022-12-10T01:16:06;69.00;;;29.27;;
5833;SDS011;2943;48.012;10.968;2022-12-10T01:18:34;69.17;;;29.47;;
5833;SDS011;2943;48.012;10.968;2022-12-10T01:21:01;70.30;;;30.17;;
5833;SDS011;2943;48.012;10.968;2022-12-10T01:23:30;71.10;;;29.10;;
5833;SDS011;2943;48.012;10.968;2022-12-10T01:26:00;65.70;;;29.30;;
5833;SDS011;2943;48.012;10.968;2022-12-10T01:28:28;66.53;;;30.10;;
5833;SDS011;2943;48.012;10.968;2022-12-10T01:30:59;72.10;;;30.10;;
5833;SDS011;2943;48.012;10.968;2022-12-10T01:33:27;71.23;;;32.67;;
5833;SDS011;2943;48.012;10.968;2022-12-10T01:35:54;66.37;;;29.37;;
5833;SDS011;2943;48.012;10.968;2022-12-10T01:38:21;74.90;;;30.60;;
5833;SDS011;2943;48.012;10.968;2022-12-10T01:40:48;65.83;;;29.13;;
5833;SDS011;2943;48.012;10.968;2022-12-10T01:43:16;71.83;;;29.20;;
5833;SDS011;2943;48.012;10.968;2022-12-10T01:45:43;72.50;;;29.10;;
5833;SDS011;2943;48.012;10.968;2022-12-10T01:48:10;64.63;;;31.00;;
5833;SDS011;2943;48.012;10.968;2022-12-10T01:50:37;77.95;;;31.38;;
5833;SDS011;2943;48.012;10.968;2022-12-10T01:53:04;84.53;;;34.30;;
5833;SDS011;2943;48.012;10.968;2022-12-10T01:55:37;74.53;;;33.30;;
5833;SDS011;2943;48.012;10.968;2022-12-10T01:58:09;71.63;;;31.10;;
5833;SDS011;2943;48.012;10.968;2022-12-10T02:00:43;72.73;;;30.30;;
5833;SDS011;2943;48.012;10.968;2022-12-10T02:03:27;61.53;;;29.17;;
5833;SDS011;2943;48.012;10.968;2022-12-10T02:06:06;63.67;;;29.20;;
5833;SDS011;2943;48.012;10.968;2022-12-10T02:08:43;70.53;;;29.13;;
5833;SDS011;2943;48.012;10.968;2022-12-10T02:11:22;61.33;;;27.80;;
5833;SDS011;2943;48.012;10.968;2022-12-10T02:13:56;62.77;;;28.07;;
5833;SDS011;2943;48.012;10.968;2022-12-10T02:16:31;56.23;;;26.17;;
5833;SDS011;2943;48.012;10.968;2022-12-10T02:19:03;69.33;;;28.90;;
5833;SDS011;2943;48.012;10.968;2022-12-10T02:21:40;65.93;;;29.40;;
5833;SDS011;2943;48.012;10.968;2022-12-10T02:24:11;59.40;;;28.00;;
5833;SDS011;2943;48.012;10.968;2022-12-10T02:26:43;66.50;;;27.90;;
5833;SDS011;2943;48.012;10.968;2022-12-10T02:29:14;64.27;;;28.27;;
5833;SDS011;2943;48.012;10.968;2022-12-10T02:31:44;61.53;;;28.50;;
5833;SDS011;2943;48.012;10.968;2022-12-10T02:34:14;58.70;;;28.27;;
5833;SDS011;2943;48.012;10.968;2022-12-10T02:36:44;63.63;;;27.47;;
5833;SDS011;2943;48.012;10.968;2022-12-10T02:39:15;71.70;;;31.63;;
5833;SDS011;2943;48.012;10.968;2022-12-10T02:41:46;69.37;;;29.43;;
5833;SDS011;2943;48.012;10.968;2022-12-10T02:44:16;67.87;;;28.77;;
5833;SDS011;2943;48.012;10.968;2022-12-10T02:46:46;61.30;;;27.67;;
5833;SDS011;2943;48.012;10.968;2022-12-10T02:49:18;58.97;;;28.00;;
5833;SDS011;2943;48.012;10.968;2022-12-10T02:51:45;61.00;;;27.20;;
5833;SDS011;2943;48.012;10.968;2022-12-10T02:57:03;65.10;;;29.17;;
5833;SDS011;2943;48.012;10.968;2022-12-10T02:59:42;58.30;;;27.17;;
5833;SDS011;2943;48.012;10.968;2022-12-10T03:02:19;60.77;;;28.80;;
5833;SDS011;2943;48.012;10.968;2022-12-10T03:04:51;60.73;;;26.70;;
5833;SDS011;2943;48.012;10.968;2022-12-10T03:07:25;62.87;;;28.53;;
5833;SDS011;2943;48.012;10.968;2022-12-10T03:09:59;61.80;;;28.50;;
5833;SDS011;2943;48.012;10.968;2022-12-10T03:12:31;63.23;;;29.53;;
5833;SDS011;2943;48.012;10.968;2022-12-10T03:15:05;60.70;;;28.17;;
5833;SDS011;2943;48.012;10.968;2022-12-10T03:17:34;58.27;;;27.20;;
5833;SDS011;2943;48.012;10.968;2022-12-10T03:20:03;63.70;;;27.00;;
5833;SDS011;2943;48.012;10.968;2022-12-10T03:22:34;62.93;;;29.00;;
5833;SDS011;2943;48.012;10.968;2022-12-10T03:25:04;59.43;;;26.07;;
5833;SDS011;2943;48.012;10.968;2022-12-10T03:27:32;62.93;;;28.63;;
5833;SDS011;2943;48.012;10.968;2022-12-10T03:30:00;61.20;;;27.77;;
5833;SDS011;2943;48.012;10.968;2022-12-10T03:32:29;61.70;;;28.50;;
5833;SDS011;2943;48.012;10.968;2022-12-10T03:34:57;58.00;;;27.30;;
5833;SDS011;2943;48.012;10.968;2022-12-10T03:37:25;59.47;;;28.53;;
5833;SDS011;2943;48.012;10.968;2022-12-10T03:39:53;59.60;;;26.70;;
5833;SDS011;2943;48.012;10.968;2022-12-10T03:42:21;60.27;;;27.53;;
5833;SDS011;2943;48.012;10.968;2022-12-10T03:44:49;69.13;;;29.80;;
5833;SDS011;2943;48.012;10.968;2022-12-10T03:47:16;66.77;;;30.27;;
5833;SDS011;2943;48.012;10.968;2022-12-10T03:49:45;65.27;;;28.00;;
5833;SDS011;2943;48.012;10.968;2022-12-10T03:52:12;62.07;;;29.27;;
5833;SDS011;2943;48.012;10.968;2022-12-10T03:54:38;55.90;;;25.80;;
5833;SDS011;2943;48.012;10.968;2022-12-10T03:57:05;56.23;;;26.20;;
5833;SDS011;2943;48.012;10.968;2022-12-10T03:59:32;63.50;;;28.20;;
5833;SDS011;2943;48.012;10.968;2022-12-10T04:01:59;62.20;;;29.00;;
5833;SDS011;2943;48.012;10.968;2022-12-10T04:04:26;62.67;;;28.03;;
5833;SDS011;2943;48.012;10.968;2022-12-10T04:06:54;59.90;;;26.23;;
5833;SDS011;2943;48.012;10.968;2022-12-10T04:09:21;50.67;;;25.23;;
5833;SDS011;2943;48.012;10.968;2022-12-10T04:11:48;51.00;;;23.97;;
5833;SDS011;2943;48.012;10.968;2022-12-10T04:14:14;55.30;;;25.30;;
5833;SDS011;2943;48.012;10.968;2022-12-10T04:16:59;51.00;;;26.57;;
5833;SDS011;2943;48.012;10.968;2022-12-10T04:19:26;49.20;;;23.50;;
5833;SDS011;2943;48.012;10.968;2022-12-10T04:21:54;54.37;;;26.03;;
5833;SDS011;2943;48.012;10.968;2022-12-10T04:24:38;45.60;;;21.93;;
5833;SDS011;2943;48.012;10.968;2022-12-10T04:27:23;52.90;;;25.70;;
5833;SDS011;2943;48.012;10.968;2022-12-10T04:29:51;44.33;;;21.77;;
5833;SDS011;2943;48.012;10.968;2022-12-10T04:32:19;48.80;;;23.77;;
5833;SDS011;2943;48.012;10.968;2022-12-10T04:34:46;47.40;;;24.60;;
5833;SDS011;2943;48.012;10.968;2022-12-10T04:37:15;49.90;;;24.67;;
5833;SDS011;2943;48.012;10.968;2022-12-10T04:39:42;52.13;;;23.20;;
5833;SDS011;2943;48.012;10.968;2022-12-10T04:42:09;45.33;;;22.97;;
5833;SDS011;2943;48.012;10.968;2022-12-10T04:44:37;41.93;;;23.00;;
5833;SDS011;2943;48.012;10.968;2022-12-10T04:47:04;49.93;;;23.40;;
5833;SDS011;2943;48.012;10.968;2022-12-10T04:49:32;48.07;;;22.57;;
5833;SDS011;2943;48.012;10.968;2022-12-10T04:52:00;53.67;;;24.23;;
5833;SDS011;2943;48.012;10.968;2022-12-10T04:54:29;51.27;;;25.10;;
5833;SDS011;2943;48.012;10.968;2022-12-10T04:56:55;41.47;;;22.17;;
5833;SDS011;2943;48.012;10.968;2022-12-10T04:59:22;44.47;;;22.67;;
5833;SDS011;2943;48.012;10.968;2022-12-10T05:01:49;39.30;;;20.90;;
5833;SDS011;2943;48.012;10.968;2022-12-10T05:04:17;41.10;;;22.67;;
5833;SDS011;2943;48.012;10.968;2022-12-10T05:06:46;43.37;;;21.90;;
5833;SDS011;2943;48.012;10.968;2022-12-10T05:09:15;44.70;;;23.50;;
5833;SDS011;2943;48.012;10.968;2022-12-10T05:11:43;40.37;;;20.07;;
5833;SDS011;2943;48.012;10.968;2022-12-10T05:14:10;43.80;;;21.57;;
5833;SDS011;2943;48.012;10.968;2022-12-10T05:16:38;40.30;;;21.23;;
5833;SDS011;2943;48.012;10.968;2022-12-10T05:19:04;44.40;;;22.30;;
5833;SDS011;2943;48.012;10.968;2022-12-10T05:21:31;45.17;;;21.97;;
5833;SDS011;2943;48.012;10.968;2022-12-10T05:24:12;38.00;;;20.13;;
5833;SDS011;2943;48.012;10.968;2022-12-10T05:26:39;40.90;;;20.30;;
5833;SDS011;2943;48.012;10.968;2022-12-10T05:29:08;40.47;;;21.43;;
5833;SDS011;2943;48.012;10.968;2022-12-10T05:31:35;46.40;;;23.30;;
5833;SDS011;2943;48.012;10.968;2022-12-10T05:34:02;38.67;;;20.30;;
5833;SDS011;2943;48.012;10.968;2022-12-10T05:36:29;44.53;;;22.90;;
5833;SDS011;2943;48.012;10.968;2022-12-10T05:38:57;38.03;;;21.20;;
5833;SDS011;2943;48.012;10.968;2022-12-10T05:41:26;43.33;;;22.27;;
5833;SDS011;2943;48.012;10.968;2022-12-10T05:43:54;39.93;;;20.17;;
5833;SDS011;2943;48.012;10.968;2022-12-10T05:46:25;38.50;;;21.73;;
5833;SDS011;2943;48.012;10.968;2022-12-10T05:48:53;37.67;;;21.00;;
5833;SDS011;2943;48.012;10.968;2022-12-10T05:51:21;44.93;;;22.27;;
5833;SDS011;2943;48.012;10.968;2022-12-10T05:53:49;49.13;;;23.40;;
5833;SDS011;2943;48.012;10.968;2022-12-10T05:56:16;43.27;;;21.53;;
5833;SDS011;2943;48.012;10.968;2022-12-10T05:58:45;49.03;;;22.87;;
5833;SDS011;2943;48.012;10.968;2022-12-10T06:01:14;47.43;;;21.40;;
5833;SDS011;2943;48.012;10.968;2022-12-10T06:03:43;42.93;;;21.80;;
5833;SDS011;2943;48.012;10.968;2022-12-10T06:06:11;47.40;;;24.27;;
5833;SDS011;2943;48.012;10.968;2022-12-10T06:08:38;44.00;;;21.80;;
5833;SDS011;2943;48.012;10.968;2022-12-10T06:11:07;49.13;;;24.60;;
5833;SDS011;2943;48.012;10.968;2022-12-10T06:13:36;51.40;;;23.07;;
5833;SDS011;2943;48.012;10.968;2022-12-10T06:16:04;47.53;;;23.27;;
5833;SDS011;2943;48.012;10.968;2022-12-10T06:18:32;52.90;;;24.67;;
5833;SDS011;2943;48.012;10.968;2022-12-10T06:21:00;53.37;;;25.13;;
5833;SDS011;2943;48.012;10.968;2022-12-10T06:23:29;47.03;;;24.43;;
5833;SDS011;2943;48.012;10.968;2022-12-10T06:25:55;48.53;;;23.80;;
5833;SDS011;2943;48.012;10.968;2022-12-10T06:28:22;47.00;;;22.27;;
5833;SDS011;2943;48.012;10.968;2022-12-10T06:30:49;51.73;;;25.10;;
5833;SDS011;2943;48.012;10.968;2022-12-10T06:33:16;47.60;;;23.07;;
5833;SDS011;2943;48.012;10.968;2022-12-10T06:35:43;57.00;;;26.70;;
5833;SDS011;2943;48.012;10.968;2022-12-10T06:38:11;62.83;;;28.87;;
5833;SDS011;2943;48.012;10.968;2022-12-10T06:40:38;55.73;;;25.40;;
5833;SDS011;2943;48.012;10.968;2022-12-10T06:43:05;52.63;;;25.10;;
5833;SDS011;2943;48.012;10.968;2022-12-10T06:45:32;55.53;;;26.30;;
5833;SDS011;2943;48.012;10.968;2022-12-10T06:47:59;55.00;;;25.07;;
5833;SDS011;2943;48.012;10.968;2022-12-10T06:50:26;56.90;;;25.73;;
5833;SDS011;2943;48.012;10.968;2022-12-10T06:52:53;53.27;;;25.43;;
5833;SDS011;2943;48.012;10.968;2022-12-10T06:55:22;57.50;;;26.70;;
5833;SDS011;2943;48.012;10.968;2022-12-10T06:57:50;55.77;;;25.97;;
5833;SDS011;2943;48.012;10.968;2022-12-10T07:00:17;53.53;;;25.20;;
5833;SDS011;2943;48.012;10.968;2022-12-10T07:02:44;52.33;;;25.83;;
5833;SDS011;2943;48.012;10.968;2022-12-10T07:05:11;59.60;;;25.83;;
5833;SDS011;2943;48.012;10.968;2022-12-10T07:07:39;60.30;;;25.60;;
5833;SDS011;2943;48.012;10.968;2022-12-10T07:10:06;58.07;;;26.83;;
5833;SDS011;2943;48.012;10.968;2022-12-10T07:12:35;59.77;;;27.17;;
5833;SDS011;2943;48.012;10.968;2022-12-10T07:15:02;58.30;;;25.60;;
5833;SDS011;2943;48.012;10.968;2022-12-10T07:17:29;56.53;;;25.77;;
5833;SDS011;2943;48.012;10.968;2022-12-10T07:19:56;60.87;;;27.60;;
5833;SDS011;2943;48.012;10.968;2022-12-10T07:22:22;60.37;;;27.77;;
5833;SDS011;2943;48.012;10.968;2022-12-10T07:24:49;64.37;;;26.90;;
5833;SDS011;2943;48.012;10.968;2022-12-10T07:27:16;67.07;;;27.67;;
5833;SDS011;2943;48.012;10.968;2022-12-10T07:29:44;63.93;;;27.07;;
5833;SDS011;2943;48.012;10.968;2022-12-10T07:32:11;73.77;;;27.60;;
5833;SDS011;2943;48.012;10.968;2022-12-10T07:34:39;63.43;;;27.47;;
5833;SDS011;2943;48.012;10.968;2022-12-10T07:37:05;68.37;;;28.40;;
5833;SDS011;2943;48.012;10.968;2022-12-10T07:39:33;68.70;;;25.83;;
5833;SDS011;2943;48.012;10.968;2022-12-10T07:42:00;64.27;;;27.57;;
5833;SDS011;2943;48.012;10.968;2022-12-10T07:44:26;78.47;;;29.30;;
5833;SDS011;2943;48.012;10.968;2022-12-10T07:46:55;71.23;;;28.50;;
5833;SDS011;2943;48.012;10.968;2022-12-10T07:49:22;65.83;;;27.23;;
5833;SDS011;2943;48.012;10.968;2022-12-10T07:51:49;72.77;;;27.70;;
5833;SDS011;2943;48.012;10.968;2022-12-10T07:54:20;87.83;;;31.73;;
5833;SDS011;2943;48.012;10.968;2022-12-10T07:56:47;76.53;;;28.80;;
5833;SDS011;2943;48.012;10.968;2022-12-10T07:59:17;90.17;;;32.33;;
5833;SDS011;2943;48.012;10.968;2022-12-10T08:01:44;79.37;;;31.30;;
5833;SDS011;2943;48.012;10.968;2022-12-10T08:04:14;84.40;;;31.10;;
5833;SDS011;2943;48.012;10.968;2022-12-10T08:06:43;84.20;;;31.53;;
5833;SDS011;2943;48.012;10.968;2022-12-10T08:09:10;88.33;;;29.70;;
5833;SDS011;2943;48.012;10.968;2022-12-10T08:11:38;76.70;;;32.20;;
5833;SDS011;2943;48.012;10.968;2022-12-10T08:14:06;87.40;;;33.50;;
5833;SDS011;2943;48.012;10.968;2022-12-10T08:16:33;98.23;;;33.33;;
5833;SDS011;2943;48.012;10.968;2022-12-10T08:19:01;78.60;;;30.60;;
5833;SDS011;2943;48.012;10.968;2022-12-10T08:21:31;68.10;;;28.60;;
5833;SDS011;2943;48.012;10.968;2022-12-10T08:23:59;73.47;;;31.27;;
5833;SDS011;2943;48.012;10.968;2022-12-10T08:26:27;67.90;;;27.17;;
5833;SDS011;2943;48.012;10.968;2022-12-10T08:28:55;75.17;;;29.53;;
5833;SDS011;2943;48.012;10.968;2022-12-10T08:31:23;82.57;;;30.63;;
5833;SDS011;2943;48.012;10.968;2022-12-10T08:33:52;81.77;;;29.47;;
5833;SDS011;2943;48.012;10.968;2022-12-10T08:36:19;81.47;;;30.17;;
5833;SDS011;2943;48.012;10.968;2022-12-10T08:38:48;90.07;;;33.10;;
5833;SDS011;2943;48.012;10.968;2022-12-10T08:41:16;77.07;;;30.20;;
5833;SDS011;2943;48.012;10.968;2022-12-10T08:43:47;77.20;;;28.50;;
5833;SDS011;2943;48.012;10.968;2022-12-10T08:46:22;79.27;;;29.97;;
5833;SDS011;2943;48.012;10.968;2022-12-10T08:48:50;62.20;;;26.87;;
5833;SDS011;2943;48.012;10.968;2022-12-10T08:51:18;62.17;;;26.00;;
5833;SDS011;2943;48.012;10.968;2022-12-10T08:53:50;51.23;;;23.13;;
5833;SDS011;2943;48.012;10.968;2022-12-10T08:56:17;56.60;;;25.10;;
5833;SDS011;2943;48.012;10.968;2022-12-10T08:58:44;56.40;;;23.80;;
5833;SDS011;2943;48.012;10.968;2022-12-10T09:01:14;58.50;;;24.70;;
5833;SDS011;2943;48.012;10.968;2022-12-10T09:03:45;48.77;;;23.63;;
5833;SDS011;2943;48.012;10.968;2022-12-10T09:06:14;57.93;;;25.63;;
5833;SDS011;2943;48.012;10.968;2022-12-10T09:08:43;52.83;;;24.40;;
5833;SDS011;2943;48.012;10.968;2022-12-10T09:11:12;53.70;;;25.73;;
5833;SDS011;2943;48.012;10.968;2022-12-10T09:13:41;63.63;;;26.60;;
5833;SDS011;2943;48.012;10.968;2022-12-10T09:16:08;60.33;;;25.97;;
5833;SDS011;2943;48.012;10.968;2022-12-10T09:18:35;69.17;;;27.60;;
5833;SDS011;2943;48.012;10.968;2022-12-10T09:21:04;70.63;;;28.00;;
5833;SDS011;2943;48.012;10.968;2022-12-10T09:23:33;69.27;;;29.57;;
5833;SDS011;2943;48.012;10.968;2022-12-10T09:26:00;74.43;;;28.33;;
5833;SDS011;2943;48.012;10.968;2022-12-10T09:28:31;75.97;;;30.70;;
5833;SDS011;2943;48.012;10.968;2022-12-10T09:30:59;88.83;;;32.50;;
5833;SDS011;2943;48.012;10.968;2022-12-10T09:33:27;87.03;;;34.23;;
5833;SDS011;2943;48.012;10.968;2022-12-10T09:35:54;66.80;;;30.40;;
5833;SDS011;2943;48.012;10.968;2022-12-10T09:38:23;72.17;;;29.27;;
5833;SDS011;2943;48.012;10.968;2022-12-10T09:40:57;64.27;;;28.43;;
5833;SDS011;2943;48.012;10.968;2022-12-10T09:43:32;84.03;;;30.40;;
5833;SDS011;2943;48.012;10.968;2022-12-10T09:46:13;78.40;;;30.40;;
5833;SDS011;2943;48.012;10.968;2022-12-10T09:48:52;73.43;;;29.27;;
5833;SDS011;2943;48.012;10.968;2022-12-10T09:51:27;89.63;;;35.47;;
5833;SDS011;2943;48.012;10.968;2022-12-10T09:53:57;78.50;;;28.57;;
5833;SDS011;2943;48.012;10.968;2022-12-10T09:56:30;79.53;;;29.57;;
5833;SDS011;2943;48.012;10.968;2022-12-10T09:59:03;67.13;;;27.60;;
5833;SDS011;2943;48.012;10.968;2022-12-10T10:01:41;73.57;;;30.13;;
5833;SDS011;2943;48.012;10.968;2022-12-10T10:04:09;77.47;;;33.57;;
5833;SDS011;2943;48.012;10.968;2022-12-10T10:06:37;79.50;;;33.80;;
5833;SDS011;2943;48.012;10.968;2022-12-10T10:09:06;83.93;;;36.10;;
5833;SDS011;2943;48.012;10.968;2022-12-10T10:11:38;77.50;;;37.55;;
5833;SDS011;2943;48.012;10.968;2022-12-10T10:14:09;79.07;;;36.27;;
5833;SDS011;2943;48.012;10.968;2022-12-10T10:16:40;72.53;;;33.13;;
5833;SDS011;2943;48.012;10.968;2022-12-10T10:19:13;67.87;;;30.47;;
5833;SDS011;2943;48.012;10.968;2022-12-10T10:21:43;74.07;;;31.47;;
5833;SDS011;2943;48.012;10.968;2022-12-10T10:24:12;72.70;;;32.57;;
5833;SDS011;2943;48.012;10.968;2022-12-10T10:26:43;77.50;;;31.60;;
5833;SDS011;2943;48.012;10.968;2022-12-10T10:29:13;69.10;;;29.83;;
5833;SDS011;2943;48.012;10.968;2022-12-10T10:31:43;58.73;;;29.73;;
5833;SDS011;2943;48.012;10.968;2022-12-10T10:34:13;64.77;;;30.60;;
5833;SDS011;2943;48.012;10.968;2022-12-10T10:36:43;63.30;;;28.20;;
5833;SDS011;2943;48.012;10.968;2022-12-10T10:39:11;66.87;;;29.27;;
5833;SDS011;2943;48.012;10.968;2022-12-10T10:41:52;55.10;;;26.07;;
5833;SDS011;2943;48.012;10.968;2022-12-10T10:44:24;51.97;;;26.03;;
5833;SDS011;2943;48.012;10.968;2022-12-10T10:46:55;54.10;;;26.03;;
5833;SDS011;2943;48.012;10.968;2022-12-10T10:49:25;53.40;;;25.57;;
5833;SDS011;2943;48.012;10.968;2022-12-10T10:51:59;50.87;;;25.23;;
5833;SDS011;2943;48.012;10.968;2022-12-10T10:54:32;54.73;;;25.97;;
5833;SDS011;2943;48.012;10.968;2022-12-10T10:57:01;49.97;;;26.13;;
5833;SDS011;2943;48.012;10.968;2022-12-10T10:59:32;55.17;;;25.67;;
5833;SDS011;2943;48.012;10.968;2022-12-10T11:02:04;56.40;;;25.97;;
5833;SDS011;2943;48.012;10.968;2022-12-10T11:04:44;55.13;;;26.40;;
5833;SDS011;2943;48.012;10.968;2022-12-10T11:07:16;54.93;;;27.80;;
5833;SDS011;2943;48.012;10.968;2022-12-10T11:09:48;52.60;;;27.73;;
5833;SDS011;2943;48.012;10.968;2022-12-10T11:12:23;55.70;;;26.83;;
5833;SDS011;2943;48.012;10.968;2022-12-10T11:15:02;64.63;;;29.27;;
5833;SDS011;2943;48.012;10.968;2022-12-10T11:17:55;61.73;;;28.13;;
5833;SDS011;2943;48.012;10.968;2022-12-10T11:20:26;58.53;;;27.40;;
5833;SDS011;2943;48.012;10.968;2022-12-10T11:22:57;59.70;;;29.07;;
5833;SDS011;2943;48.012;10.968;2022-12-10T11:25:30;52.00;;;26.80;;
5833;SDS011;2943;48.012;10.968;2022-12-10T11:28:08;62.20;;;29.17;;
5833;SDS011;2943;48.012;10.968;2022-12-10T11:30:50;50.90;;;26.00;;
5833;SDS011;2943;48.012;10.968;2022-12-10T11:33:25;55.73;;;27.77;;
5833;SDS011;2943;48.012;10.968;2022-12-10T11:36:03;55.23;;;27.33;;
5833;SDS011;2943;48.012;10.968;2022-12-10T11:38:41;55.17;;;26.60;;
5833;SDS011;2943;48.012;10.968;2022-12-10T11:41:17;57.77;;;28.30;;
5833;SDS011;2943;48.012;10.968;2022-12-10T11:44:00;55.77;;;26.30;;
5833;SDS011;2943;48.012;10.968;2022-12-10T11:49:38;51.07;;;24.97;;
5833;SDS011;2943;48.012;10.968;2022-12-10T11:52:16;48.67;;;25.00;;
5833;SDS011;2943;48.012;10.968;2022-12-10T11:55:04;44.73;;;23.00;;
5833;SDS011;2943;48.012;10.968;2022-12-10T11:57:43;45.90;;;22.27;;
5833;SDS011;2943;48.012;10.968;2022-12-10T12:00:18;44.37;;;22.13;;
5833;SDS011;2943;48.012;10.968;2022-12-10T12:06:01;42.83;;;20.80;;
5833;SDS011;2943;48.012;10.968;2022-12-10T12:08:44;39.90;;;20.37;;
5833;SDS011;2943;48.012;10.968;2022-12-10T12:11:24;42.40;;;22.53;;
5833;SDS011;2943;48.012;10.968;2022-12-10T12:14:01;41.73;;;20.97;;
5833;SDS011;2943;48.012;10.968;2022-12-10T12:16:34;35.80;;;19.57;;
5833;SDS011;2943;48.012;10.968;2022-12-10T12:19:09;41.87;;;22.30;;
5833;SDS011;2943;48.012;10.968;2022-12-10T12:21:42;40.83;;;21.63;;
5833;SDS011;2943;48.012;10.968;2022-12-10T12:24:12;46.53;;;23.23;;
5833;SDS011;2943;48.012;10.968;2022-12-10T12:26:46;45.43;;;21.60;;
5833;SDS011;2943;48.012;10.968;2022-12-10T12:29:20;45.13;;;22.73;;
5833;SDS011;2943;48.012;10.968;2022-12-10T12:31:54;46.20;;;24.67;;
5833;SDS011;2943;48.012;10.968;2022-12-10T12:34:29;48.23;;;25.00;;
5833;SDS011;2943;48.012;10.968;2022-12-10T12:37:10;57.70;;;27.97;;
5833;SDS011;2943;48.012;10.968;2022-12-10T12:39:43;53.97;;;28.80;;
5833;SDS011;2943;48.012;10.968;2022-12-10T12:42:17;53.80;;;28.10;;
5833;SDS011;2943;48.012;10.968;2022-12-10T12:45:02;58.67;;;28.33;;
5833;SDS011;2943;48.012;10.968;2022-12-10T12:47:38;51.20;;;26.00;;
5833;SDS011;2943;48.012;10.968;2022-12-10T12:50:16;52.10;;;26.57;;
5833;SDS011;2943;48.012;10.968;2022-12-10T12:52:58;58.03;;;26.70;;
5833;SDS011;2943;48.012;10.968;2022-12-10T12:55:28;46.10;;;25.57;;
5833;SDS011;2943;48.012;10.968;2022-12-10T12:58:03;53.17;;;26.93;;
5833;SDS011;2943;48.012;10.968;2022-12-10T13:00:46;52.23;;;27.23;;
5833;SDS011;2943;48.012;10.968;2022-12-10T13:03:19;54.07;;;28.67;;
5833;SDS011;2943;48.012;10.968;2022-12-10T13:05:55;50.23;;;26.90;;
5833;SDS011;2943;48.012;10.968;2022-12-10T13:08:41;52.50;;;25.70;;
5833;SDS011;2943;48.012;10.968;2022-12-10T13:14:14;53.00;;;26.83;;
5833;SDS011;2943;48.012;10.968;2022-12-10T13:17:02;53.10;;;28.33;;
5833;SDS011;2943;48.012;10.968;2022-12-10T13:19:50;54.17;;;27.87;;
5833;SDS011;2943;48.012;10.968;2022-12-10T13:25:12;51.20;;;28.13;;
5833;SDS011;2943;48.012;10.968;2022-12-10T13:27:54;62.03;;;32.07;;
5833;SDS011;2943;48.012;10.968;2022-12-10T13:30:28;68.27;;;32.37;;
5833;SDS011;2943;48.012;10.968;2022-12-10T13:33:11;52.70;;;30.03;;
5833;SDS011;2943;48.012;10.968;2022-12-10T13:35:43;56.03;;;28.27;;
5833;SDS011;2943;48.012;10.968;2022-12-10T13:38:22;55.77;;;28.87;;
5833;SDS011;2943;48.012;10.968;2022-12-10T13:40:58;73.80;;;33.73;;
5833;SDS011;2943;48.012;10.968;2022-12-10T13:43:51;66.03;;;29.70;;
5833;SDS011;2943;48.012;10.968;2022-12-10T13:46:50;44.80;;;24.13;;
5833;SDS011;2943;48.012;10.968;2022-12-10T13:49:24;40.87;;;24.40;;
5833;SDS011;2943;48.012;10.968;2022-12-10T13:51:55;46.17;;;25.30;;
5833;SDS011;2943;48.012;10.968;2022-12-10T13:54:42;48.00;;;23.90;;
5833;SDS011;2943;48.012;10.968;2022-12-10T13:57:40;49.47;;;25.90;;
5833;SDS011;2943;48.012;10.968;2022-12-10T14:00:29;50.53;;;24.60;;
5833;SDS011;2943;48.012;10.968;2022-12-10T14:03:07;46.20;;;23.77;;
5833;SDS011;2943;48.012;10.968;2022-12-10T14:05:50;52.53;;;25.87;;
5833;SDS011;2943;48.012;10.968;2022-12-10T14:08:59;45.37;;;23.90;;
5833;SDS011;2943;48.012;10.968;2022-12-10T14:11:34;42.60;;;23.43;;
5833;SDS011;2943;48.012;10.968;2022-12-10T14:14:06;45.47;;;22.60;;
5833;SDS011;2943;48.012;10.968;2022-12-10T14:16:39;45.70;;;22.70;;
5833;SDS011;2943;48.012;10.968;2022-12-10T14:19:11;42.50;;;24.10;;
5833;SDS011;2943;48.012;10.968;2022-12-10T14:21:41;44.90;;;23.30;;
5833;SDS011;2943;48.012;10.968;2022-12-10T14:24:25;43.37;;;22.80;;
5833;SDS011;2943;48.012;10.968;2022-12-10T14:26:59;43.23;;;22.37;;
5833;SDS011;2943;48.012;10.968;2022-12-10T14:29:29;40.60;;;21.57;;
5833;SDS011;2943;48.012;10.968;2022-12-10T14:31:56;43.37;;;22.00;;
5833;SDS011;2943;48.012;10.968;2022-12-10T14:34:24;39.17;;;21.30;;
5833;SDS011;2943;48.012;10.968;2022-12-10T14:36:54;37.80;;;21.83;;
5833;SDS011;2943;48.012;10.968;2022-12-10T14:39:24;42.10;;;22.60;;
5833;SDS011;2943;48.012;10.968;2022-12-10T14:41:55;44.10;;;24.60;;
5833;SDS011;2943;48.012;10.968;2022-12-10T14:44:25;47.40;;;25.97;;
5833;SDS011;2943;48.012;10.968;2022-12-10T14:47:02;46.63;;;25.63;;
5833;SDS011;2943;48.012;10.968;2022-12-10T14:49:30;47.43;;;25.00;;
5833;SDS011;2943;48.012;10.968;2022-12-10T14:52:00;48.27;;;25.53;;
5833;SDS011;2943;48.012;10.968;2022-12-10T14:54:28;47.57;;;25.43;;
5833;SDS011;2943;48.012;10.968;2022-12-10T14:56:58;52.20;;;25.60;;
5833;SDS011;2943;48.012;10.968;2022-12-10T14:59:31;46.97;;;23.20;;
5833;SDS011;2943;48.012;10.968;2022-12-10T15:02:05;52.40;;;21.90;;
5833;SDS011;2943;48.012;10.968;2022-12-10T15:04:45;42.70;;;22.53;;
5833;SDS011;2943;48.012;10.968;2022-12-10T15:07:15;45.63;;;23.73;;
5833;SDS011;2943;48.012;10.968;2022-12-10T15:09:45;41.50;;;23.80;;
5833;SDS011;2943;48.012;10.968;2022-12-10T15:12:18;46.40;;;23.10;;